createdAt,value
2023-01-31T00:02:01.300Z,2.00
2023-01-31T00:05:03.394Z,2.13
2023-01-31T00:08:05.433Z,1.83
2023-01-31T00:11:07.501Z,2.83
2023-01-31T00:14:10.974Z,1.37
2023-01-31T00:17:12.713Z,2.43
2023-01-31T00:20:14.490Z,1.90
2023-01-31T00:23:16.365Z,2.23
2023-01-31T00:26:30.044Z,2.80
2023-01-31T00:29:32.199Z,1.67
2023-01-31T00:32:33.956Z,2.20
2023-01-31T00:35:39.854Z,2.07
2023-01-31T00:38:44.785Z,1.53
2023-01-31T00:41:46.521Z,2.03
2023-01-31T00:44:48.284Z,2.60
2023-01-31T00:47:50.051Z,2.20
2023-01-31T00:50:52.210Z,3.00
2023-01-31T00:53:54.134Z,2.00
2023-01-31T00:56:55.962Z,2.20
2023-01-31T00:59:57.706Z,1.67
2023-01-31T01:02:59.475Z,2.43
2023-01-31T01:06:01.217Z,1.23
2023-01-31T01:09:03.020Z,1.87
2023-01-31T01:12:05.032Z,1.73
2023-01-31T01:15:07.360Z,2.00
2023-01-31T01:18:09.471Z,1.67
2023-01-31T01:21:15.979Z,3.27
2023-01-31T01:24:19.779Z,1.10
2023-01-31T01:27:23.029Z,2.13
2023-01-31T01:30:24.745Z,2.43
2023-01-31T01:33:26.448Z,1.43
2023-01-31T01:36:29.327Z,3.00
2023-01-31T01:39:31.106Z,1.80
2023-01-31T01:42:36.404Z,1.93
2023-01-31T01:45:38.890Z,1.80
2023-01-31T01:48:43.318Z,2.30
2023-01-31T01:51:47.704Z,2.07
2023-01-31T01:54:56.005Z,2.07
2023-01-31T01:58:09.348Z,2.53
2023-01-31T02:01:13.716Z,2.30
2023-01-31T02:04:21.025Z,2.13
2023-01-31T02:07:22.845Z,1.93
2023-01-31T02:10:30.522Z,1.97
2023-01-31T02:13:32.343Z,2.07
2023-01-31T02:16:34.792Z,2.70
2023-01-31T02:19:52.495Z,3.13
2023-01-31T02:23:18.132Z,3.03
2023-01-31T02:26:44.515Z,2.47
2023-01-31T02:30:30.708Z,1.70
2023-01-31T02:33:50.582Z,1.83
2023-01-31T02:36:58.764Z,1.60
2023-01-31T02:40:42.002Z,2.13
2023-01-31T02:44:32.597Z,1.63
2023-01-31T02:47:41.851Z,2.47
2023-01-31T02:51:02.228Z,2.20
2023-01-31T02:54:21.328Z,1.60
2023-01-31T02:57:23.581Z,2.40
2023-01-31T03:00:26.374Z,1.87
2023-01-31T03:03:31.950Z,2.23
2023-01-31T03:06:36.833Z,2.30
2023-01-31T03:10:02.157Z,1.60
2023-01-31T03:13:36.887Z,1.70
2023-01-31T03:17:13.663Z,1.83
2023-01-31T03:20:22.088Z,2.00
2023-01-31T03:23:29.684Z,2.57
2023-01-31T03:26:32.803Z,1.73
2023-01-31T03:29:38.305Z,1.93
2023-01-31T03:32:48.880Z,2.30
2023-01-31T03:36:01.832Z,1.93
2023-01-31T03:39:40.152Z,2.03
2023-01-31T03:43:27.136Z,1.63
2023-01-31T03:46:39.027Z,1.67
2023-01-31T03:49:43.517Z,1.80
2023-01-31T03:52:52.717Z,1.63
2023-01-31T03:56:00.126Z,1.73
2023-01-31T03:59:22.753Z,1.67
2023-01-31T04:02:30.928Z,1.90
2023-01-31T04:05:33.020Z,2.67
2023-01-31T04:08:37.329Z,2.37
2023-01-31T04:11:43.084Z,1.83
2023-01-31T04:14:44.949Z,1.87
2023-01-31T04:17:46.771Z,2.10
2023-01-31T04:20:48.528Z,1.67
2023-01-31T04:23:50.315Z,2.07
2023-01-31T04:26:52.012Z,1.73
2023-01-31T04:29:53.794Z,1.80
2023-01-31T04:32:55.467Z,1.83
2023-01-31T04:35:57.241Z,3.17
2023-01-31T04:39:00.808Z,2.63
2023-01-31T04:42:02.546Z,2.77
2023-01-31T04:45:04.646Z,1.77
2023-01-31T04:48:06.727Z,2.07
2023-01-31T04:51:08.680Z,2.70
2023-01-31T04:54:10.582Z,2.30
2023-01-31T04:57:12.269Z,3.33
2023-01-31T05:00:14.372Z,3.27
2023-01-31T05:03:16.091Z,2.47
2023-01-31T05:06:18.102Z,3.27
2023-01-31T05:09:20.332Z,2.90
2023-01-31T05:12:22.146Z,3.37
2023-01-31T05:15:23.889Z,3.50
2023-01-31T05:18:25.866Z,3.73
2023-01-31T05:21:27.608Z,3.30
2023-01-31T05:24:31.778Z,3.87
2023-01-31T05:27:33.650Z,4.27
2023-01-31T05:30:36.851Z,3.67
2023-01-31T05:33:39.115Z,4.23
2023-01-31T05:36:44.318Z,3.73
2023-01-31T05:39:46.057Z,3.77
2023-01-31T05:42:57.727Z,3.90
2023-01-31T05:45:59.523Z,3.87
2023-01-31T05:49:01.290Z,4.93
2023-01-31T05:52:03.347Z,4.57
2023-01-31T05:55:05.677Z,5.10
2023-01-31T05:58:07.356Z,4.23
2023-01-31T06:01:09.426Z,4.37
2023-01-31T06:04:11.194Z,4.97
2023-01-31T06:07:13.173Z,5.37
2023-01-31T06:10:15.471Z,4.97
2023-01-31T06:13:17.210Z,5.40
2023-01-31T06:16:18.945Z,6.07
2023-01-31T06:19:25.142Z,5.13
2023-01-31T06:22:26.849Z,5.30
2023-01-31T06:25:28.553Z,5.50
2023-01-31T06:28:30.683Z,5.77
2023-01-31T06:31:33.167Z,4.60
2023-01-31T06:34:35.049Z,4.10
2023-01-31T06:37:36.768Z,4.47
2023-01-31T06:40:38.483Z,4.80
2023-01-31T06:43:40.337Z,4.30
2023-01-31T06:46:42.125Z,5.13
2023-01-31T06:49:43.821Z,5.97
2023-01-31T06:52:45.542Z,5.93
2023-01-31T06:55:47.429Z,5.63
2023-01-31T06:58:49.373Z,6.73
2023-01-31T07:01:51.209Z,5.33
2023-01-31T07:04:53.019Z,5.40
2023-01-31T07:07:54.770Z,3.80
2023-01-31T07:10:57.068Z,4.47
2023-01-31T07:13:59.322Z,5.40
2023-01-31T07:17:01.038Z,5.47
2023-01-31T07:20:02.992Z,5.23
2023-01-31T07:23:04.779Z,4.77
2023-01-31T07:26:06.719Z,4.43
2023-01-31T07:29:08.752Z,4.90
2023-01-31T07:32:11.146Z,5.60
2023-01-31T07:35:12.851Z,5.23
2023-01-31T07:38:14.936Z,4.23
2023-01-31T07:41:16.665Z,5.27
2023-01-31T07:44:18.602Z,4.50
2023-01-31T07:47:20.405Z,4.70
2023-01-31T07:50:22.123Z,3.67
2023-01-31T07:53:23.891Z,4.77
2023-01-31T07:56:25.574Z,4.47
2023-01-31T07:59:27.244Z,4.10
2023-01-31T08:02:48.082Z,4.30
2023-01-31T08:05:50.098Z,5.10
2023-01-31T08:08:51.821Z,4.67
2023-01-31T08:11:53.625Z,5.20
2023-01-31T08:14:55.308Z,3.53
2023-01-31T08:17:57.018Z,3.07
2023-01-31T08:20:59.524Z,4.27
2023-01-31T08:24:01.216Z,4.87
2023-01-31T08:27:03.129Z,4.93
2023-01-31T08:30:05.436Z,3.73
2023-01-31T08:33:07.684Z,3.73
2023-01-31T08:36:24.159Z,4.70
2023-01-31T08:39:25.836Z,4.80
2023-01-31T08:42:27.614Z,3.20
2023-01-31T08:45:30.511Z,4.83
2023-01-31T08:48:37.375Z,4.53
2023-01-31T08:51:39.068Z,3.43
2023-01-31T08:54:41.280Z,5.03
2023-01-31T08:57:58.028Z,3.63
2023-01-31T09:01:09.787Z,3.80
2023-01-31T09:04:11.496Z,3.60
2023-01-31T09:07:13.181Z,3.73
2023-01-31T09:10:14.910Z,4.03
2023-01-31T09:13:16.595Z,3.77
2023-01-31T09:16:19.548Z,3.70
2023-01-31T09:19:22.593Z,4.63
2023-01-31T09:22:24.573Z,3.07
2023-01-31T09:25:42.346Z,4.27
2023-01-31T09:28:45.926Z,3.20
2023-01-31T09:31:54.365Z,3.07
2023-01-31T09:34:56.244Z,4.13
2023-01-31T09:37:58.498Z,2.97
2023-01-31T09:41:04.217Z,3.30
2023-01-31T09:44:19.804Z,3.50
2023-01-31T09:47:33.645Z,3.50
2023-01-31T09:50:40.346Z,3.13
2023-01-31T09:53:42.761Z,3.33
2023-01-31T09:57:25.564Z,3.67
2023-01-31T10:00:38.268Z,2.47
2023-01-31T10:04:00.629Z,3.60
2023-01-31T10:07:12.222Z,3.27
2023-01-31T10:10:19.781Z,4.43
2023-01-31T10:13:35.372Z,4.63
2023-01-31T10:16:45.844Z,3.23
2023-01-31T10:20:14.796Z,2.97
2023-01-31T10:23:30.717Z,4.03
2023-01-31T10:26:36.999Z,2.87
2023-01-31T10:29:44.820Z,3.00
2023-01-31T10:32:51.727Z,2.77
2023-01-31T10:35:57.337Z,2.93
2023-01-31T10:39:29.090Z,2.57
2023-01-31T10:42:39.207Z,3.90
2023-01-31T10:45:41.178Z,2.93
2023-01-31T10:48:47.471Z,3.80
2023-01-31T10:52:28.397Z,2.77
2023-01-31T10:55:33.372Z,3.37
2023-01-31T10:58:36.499Z,2.63
2023-01-31T11:01:38.703Z,3.30
2023-01-31T11:04:43.588Z,3.40
2023-01-31T11:07:45.513Z,2.77
2023-01-31T11:10:52.736Z,3.10
2023-01-31T11:14:03.785Z,4.07
2023-01-31T11:17:17.105Z,3.13
2023-01-31T11:20:31.638Z,3.40
2023-01-31T11:23:35.805Z,2.53
2023-01-31T11:26:39.891Z,2.20
2023-01-31T11:29:48.615Z,2.20
2023-01-31T11:32:50.392Z,2.70
2023-01-31T11:35:52.813Z,2.90
2023-01-31T11:38:55.008Z,3.10
2023-01-31T11:41:57.082Z,2.23
2023-01-31T11:45:18.388Z,2.80
2023-01-31T11:48:23.121Z,2.97
2023-01-31T11:51:30.781Z,3.00
2023-01-31T11:54:34.802Z,2.50
2023-01-31T11:57:39.434Z,4.03
2023-01-31T12:00:52.847Z,3.80
2023-01-31T12:04:04.767Z,3.00
2023-01-31T12:07:40.475Z,3.53
2023-01-31T12:10:45.429Z,4.17
2023-01-31T12:13:52.577Z,3.77
2023-01-31T12:16:56.463Z,4.30
2023-01-31T12:20:28.001Z,4.00
2023-01-31T12:24:10.822Z,4.03
2023-01-31T12:27:27.653Z,4.20
2023-01-31T12:31:11.120Z,4.30
2023-01-31T12:34:25.029Z,4.43
2023-01-31T12:37:50.796Z,4.87
2023-01-31T12:41:14.299Z,4.67
2023-01-31T12:44:43.670Z,5.40
2023-01-31T12:48:01.914Z,6.07
2023-01-31T12:51:26.206Z,5.63
2023-01-31T12:54:54.209Z,6.70
2023-01-31T12:58:04.999Z,5.70
2023-01-31T13:01:32.057Z,6.57
2023-01-31T13:04:48.468Z,7.03
2023-01-31T13:07:57.549Z,5.47
2023-01-31T13:11:09.520Z,6.13
2023-01-31T13:14:16.315Z,6.60
2023-01-31T13:17:24.531Z,6.10
2023-01-31T13:20:44.353Z,6.27
2023-01-31T13:23:51.855Z,6.20
2023-01-31T13:27:02.193Z,6.83
2023-01-31T13:30:19.369Z,6.57
2023-01-31T13:33:23.898Z,5.00
2023-01-31T13:36:56.980Z,5.90
2023-01-31T13:40:18.373Z,6.23
2023-01-31T13:43:20.953Z,6.00
2023-01-31T13:46:29.680Z,5.77
2023-01-31T13:49:40.786Z,7.20
2023-01-31T13:52:52.791Z,6.83
2023-01-31T13:55:54.913Z,6.97
2023-01-31T13:58:58.177Z,7.37
2023-01-31T14:02:02.505Z,6.07
2023-01-31T14:05:24.076Z,6.00
2023-01-31T14:08:47.660Z,7.30
2023-01-31T14:11:49.608Z,8.07
2023-01-31T14:14:53.678Z,7.07
2023-01-31T14:17:59.561Z,6.63
2023-01-31T14:21:29.254Z,6.17
2023-01-31T14:24:56.718Z,6.50
2023-01-31T14:27:58.564Z,7.27
2023-01-31T14:31:13.297Z,6.70
2023-01-31T14:34:27.930Z,7.40
2023-01-31T14:37:38.602Z,6.27
2023-01-31T14:40:52.176Z,7.83
2023-01-31T14:44:25.302Z,6.87
2023-01-31T14:47:45.507Z,7.47
2023-01-31T14:51:09.015Z,6.70
2023-01-31T14:54:17.964Z,7.03
2023-01-31T14:57:26.756Z,7.37
2023-01-31T15:00:46.774Z,7.53
2023-01-31T15:03:48.477Z,7.50
2023-01-31T15:06:53.244Z,7.07
2023-01-31T15:09:55.542Z,7.50
2023-01-31T15:13:01.315Z,6.83
2023-01-31T15:16:15.214Z,6.37
2023-01-31T15:19:20.441Z,7.53
2023-01-31T15:22:22.703Z,7.90
2023-01-31T15:25:36.964Z,7.90
2023-01-31T15:28:43.230Z,6.50
2023-01-31T15:31:48.545Z,6.30
2023-01-31T15:35:28.850Z,7.70
2023-01-31T15:38:35.190Z,6.97
2023-01-31T15:41:41.769Z,6.70
2023-01-31T15:44:43.479Z,6.53
2023-01-31T15:47:58.818Z,6.03
2023-01-31T15:51:01.085Z,6.70
2023-01-31T15:54:08.303Z,6.33
2023-01-31T15:57:16.592Z,5.77
2023-01-31T16:00:28.883Z,5.47
2023-01-31T16:03:34.287Z,6.40
2023-01-31T16:06:38.018Z,5.50
2023-01-31T16:09:40.917Z,5.40
2023-01-31T16:12:46.849Z,5.43
2023-01-31T16:15:49.942Z,6.10
2023-01-31T16:18:56.923Z,5.47
2023-01-31T16:21:59.768Z,5.57
2023-01-31T16:25:03.912Z,6.03
2023-01-31T16:28:11.225Z,5.93
2023-01-31T16:31:16.469Z,4.50
2023-01-31T16:34:26.836Z,4.43
2023-01-31T16:37:33.695Z,3.57
2023-01-31T16:40:45.048Z,3.40
2023-01-31T16:43:51.353Z,3.63
2023-01-31T16:46:54.031Z,4.23
2023-01-31T16:50:32.892Z,3.90
2023-01-31T16:53:40.078Z,4.70
2023-01-31T16:56:43.719Z,4.77
2023-01-31T16:59:48.601Z,4.40
2023-01-31T17:02:52.242Z,4.47
2023-01-31T17:05:54.015Z,4.83
2023-01-31T17:08:55.747Z,4.57
2023-01-31T17:11:57.560Z,5.00
2023-01-31T17:15:02.856Z,3.97
2023-01-31T17:18:05.157Z,4.07
2023-01-31T17:21:07.107Z,3.70
2023-01-31T17:24:17.614Z,3.47
2023-01-31T17:27:21.455Z,3.53
2023-01-31T17:30:23.351Z,4.37
2023-01-31T17:33:25.089Z,4.63
2023-01-31T17:36:26.943Z,3.77
2023-01-31T17:39:28.763Z,3.77
2023-01-31T17:42:30.426Z,3.23
2023-01-31T17:45:33.050Z,3.20
2023-01-31T17:48:34.763Z,3.13
2023-01-31T17:51:36.589Z,3.57
2023-01-31T17:54:38.458Z,3.37
2023-01-31T17:57:40.672Z,2.70
2023-01-31T18:00:42.585Z,2.80
2023-01-31T18:03:44.972Z,2.77
2023-01-31T18:06:46.687Z,2.70
2023-01-31T18:09:48.445Z,2.57
2023-01-31T18:12:50.145Z,2.70
2023-01-31T18:16:05.244Z,2.33
2023-01-31T18:19:07.056Z,2.00
2023-01-31T18:22:08.776Z,3.00
2023-01-31T18:25:11.220Z,2.23
2023-01-31T18:28:12.922Z,2.03
2023-01-31T18:31:16.294Z,1.87
2023-01-31T18:34:18.093Z,1.97
2023-01-31T18:37:20.439Z,1.63
2023-01-31T18:40:22.188Z,1.80
2023-01-31T18:43:24.265Z,1.70
2023-01-31T18:46:26.694Z,2.10
2023-01-31T18:49:28.443Z,2.40
2023-01-31T18:52:30.418Z,2.23
2023-01-31T18:55:32.278Z,2.40
2023-01-31T18:58:36.814Z,2.57
2023-01-31T19:01:42.203Z,2.20
2023-01-31T19:04:44.921Z,2.03
2023-01-31T19:07:47.202Z,2.37
2023-01-31T19:10:48.901Z,2.97
2023-01-31T19:13:51.993Z,2.20
2023-01-31T19:16:54.134Z,1.53
2023-01-31T19:19:55.826Z,2.07
2023-01-31T19:22:59.173Z,2.20
2023-01-31T19:26:01.884Z,1.90
2023-01-31T19:29:04.776Z,1.87
2023-01-31T19:32:06.466Z,1.90
2023-01-31T19:35:08.574Z,1.60
2023-01-31T19:38:10.367Z,1.87
2023-01-31T19:41:19.011Z,2.47
2023-01-31T19:44:20.845Z,1.93
2023-01-31T19:47:24.839Z,1.63
2023-01-31T19:50:26.812Z,2.53
2023-01-31T19:53:29.924Z,1.87
2023-01-31T19:56:32.467Z,1.90
2023-01-31T19:59:34.355Z,1.90
2023-01-31T20:02:41.987Z,2.13
2023-01-31T20:05:43.715Z,1.53
2023-01-31T20:08:50.386Z,2.03
2023-01-31T20:11:53.875Z,2.03
2023-01-31T20:14:55.650Z,2.17
2023-01-31T20:17:57.590Z,2.20
2023-01-31T20:20:59.443Z,1.93
2023-01-31T20:24:01.210Z,2.60
2023-01-31T20:27:03.319Z,2.10
2023-01-31T20:30:06.052Z,1.70
2023-01-31T20:33:07.851Z,1.90
2023-01-31T20:36:10.291Z,2.97
2023-01-31T20:39:12.216Z,1.57
2023-01-31T20:42:13.931Z,1.13
2023-01-31T20:45:15.645Z,2.40
2023-01-31T20:48:18.107Z,1.57
2023-01-31T20:51:19.899Z,1.63
2023-01-31T20:54:21.794Z,1.63
2023-01-31T20:57:24.641Z,2.43
2023-01-31T21:00:26.399Z,2.40
2023-01-31T21:03:29.280Z,2.17
2023-01-31T21:06:30.987Z,1.73
2023-01-31T21:09:32.720Z,1.70
2023-01-31T21:12:34.678Z,2.20
2023-01-31T21:15:36.443Z,2.73
2023-01-31T21:18:40.081Z,1.50
2023-01-31T21:21:42.070Z,1.87
2023-01-31T21:24:43.819Z,2.37
2023-01-31T21:27:45.998Z,2.30
2023-01-31T21:31:07.752Z,1.97
2023-01-31T21:34:09.545Z,2.37
2023-01-31T21:37:11.321Z,1.70
2023-01-31T21:40:13.459Z,1.83
2023-01-31T21:43:16.155Z,1.83
2023-01-31T21:46:18.670Z,2.00
2023-01-31T21:49:20.378Z,1.93
2023-01-31T21:52:22.143Z,1.83
2023-01-31T21:55:23.852Z,1.70
2023-01-31T21:58:25.580Z,2.13
2023-01-31T22:01:30.148Z,2.37
2023-01-31T22:04:31.923Z,3.13
2023-01-31T22:07:33.632Z,2.20
2023-01-31T22:10:35.324Z,1.83
2023-01-31T22:13:37.580Z,2.23
2023-01-31T22:16:40.168Z,1.63
2023-01-31T22:19:41.847Z,1.97
2023-01-31T22:22:44.653Z,2.63
2023-01-31T22:25:46.339Z,1.80
2023-01-31T22:28:48.613Z,2.20
2023-01-31T22:31:50.456Z,2.23
2023-01-31T22:34:52.255Z,2.87
2023-01-31T22:37:53.971Z,2.00
2023-01-31T22:41:00.408Z,4.63
2023-01-31T22:44:02.176Z,2.50
2023-01-31T22:47:04.316Z,2.67
2023-01-31T22:50:06.403Z,2.07
2023-01-31T22:53:09.679Z,2.13
2023-01-31T22:56:14.128Z,2.13
2023-01-31T22:59:15.921Z,2.73
2023-01-31T23:02:17.646Z,3.33
2023-01-31T23:05:19.354Z,2.23
2023-01-31T23:08:21.125Z,3.27
2023-01-31T23:11:24.298Z,2.60
2023-01-31T23:14:26.045Z,2.53
2023-01-31T23:17:39.788Z,3.30
2023-01-31T23:20:41.547Z,2.70
2023-01-31T23:23:44.136Z,3.63
2023-01-31T23:26:45.931Z,2.60
2023-01-31T23:29:47.765Z,4.00
2023-01-31T23:32:50.633Z,3.53
2023-01-31T23:35:52.623Z,3.60
2023-01-31T23:38:54.567Z,3.20
2023-01-31T23:41:56.435Z,4.03
2023-01-31T23:44:58.195Z,3.83
2023-01-31T23:47:59.974Z,3.57
2023-01-31T23:51:05.567Z,2.70
2023-01-31T23:54:07.379Z,4.93
2023-01-31T23:57:09.148Z,6.13
